WEATHER DATA

YESTERDAY
Time Temp. Dewp. Hum. Wind dir Wind speed Wind gust Bar. 1h Prec. 24h Prec.
00:08 3.8 0.7 80 270 0.3 0.8 1023.2 0.0000 0.0000
00:18 3.7 0.7 81 302 0.3 0.8 1023.2 0.0000 0.0000
00:28 3.5 0.6 81 232 0.3 0.6 1023.2 0.0000 0.0000
00:39 3.3 0.4 81 270 0.3 0.8 1023.2 0.0000 0.0000
00:49 3.1 0.3 82 315 0.3 0.8 1023.2 0.0000 0.0000
01:00 2.9 0.1 82 315 0.3 0.6 1023.2 0.0000 0.0000
01:09 2.8 0 82 315 0.3 0.8 1023.3 0.0000 0.0000
01:20 2.7 0.1 83 270 0.3 0.8 1023.4 0.0000 0.0000
01:30 2.4 -0.3 82 270 0.6 1.4 1023.5 0.0000 0.0000
01:40 2.2 -0.2 84 318 0.3 1.1 1023.6 0.0000 0.0000
01:49 2.3 0.2 86 302 1.1 2.5 1023.6 0.0000 0.0000
02:00 2.5 0.1 84 239 0.6 1.1 1023.6 0.0000 0.0000
02:10 2.2 -0.2 84 239 0.3 0.8 1023.7 0.0000 0.0000
02:20 1.9 -0.5 84 270 0.3 0.8 1023.7 0.0000 0.0000
02:30 1.9 -0.3 85 240 0.6 1.4 1023.8 0.0000 0.0000
02:40 1.8 -0.4 85 237 0.3 1.1 1023.8 0.0000 0.0000
02:50 1.7 -0.3 86 231 0.3 1.1 1023.7 0.0000 0.0000
03:00 1.5 -0.5 86 228 0.3 1.1 1023.7 0.0000 0.0000
03:11 1.2 -0.9 85 236 0.8 1.7 1023.7 0.0000 0.0000
03:20 1.1 -0.7 87 222 0.6 1.1 1023.6 0.0000 0.0000
03:30 1.1 -0.7 87 228 0.8 1.4 1023.6 0.0000 0.0000
03:41 1 -0.8 87 237 0.6 1.4 1023.5 0.0000 0.0000
03:51 1 -0.8 87 228 0.8 1.4 1023.5 0.0000 0.0000
04:00 1.1 -0.6 88 228 0.8 1.7 1023.5 0.0000 0.0000
04:10 1.1 -0.6 88 228 0.8 1.4 1023.5 0.0000 0.0000
04:21 1.2 -0.5 88 286 0.6 1.4 1023.7 0.0000 0.0000
04:31 1.3 -0.3 89 315 0.6 1.1 1023.8 0.0000 0.0000
04:41 1.6 0 89 228 0.6 1.7 1023.8 0.0000 0.0000
04:51 1.6 0 89 235 0.6 1.1 1023.8 0.0000 0.0000
05:01 1.6 0.1 90 270 0.3 0.6 1023.7 0.0000 0.0000
05:11 1.6 0.1 90 225 0.6 1.7 1023.9 0.0000 0.0000
05:21 1.7 0.2 90 236 0.3 0.8 1023.9 0.0000 0.0000
05:32 1.8 0.3 90 229 0.8 1.4 1023.8 0.0000 0.0000
05:41 1.9 0.4 90 225 0.3 0.8 1023.8 0.0000 0.0000
05:51 1.9 0.4 90 231 0.8 1.4 1023.8 0.0000 0.0000
06:02 2 0.7 91 225 0.6 1.1 1023.9 0.0000 0.0000
06:12 2.1 0.8 91 270 0.3 0.8 1023.9 0.0000 0.0000
06:21 2.2 0.9 91 270 0.3 0.6 1023.9 0.0000 0.0000
06:31 2.3 1 91 225 0.3 0.8 1023.9 0.0000 0.0000
06:42 2.3 0.8 90 270 0.3 0.8 1023.9 0.0000 0.0000
06:52 2.3 0.8 90 246 0.6 1.1 1024 0.0000 0.0000
07:01 2.2 0.7 90 225 0.8 1.7 1024 0.0000 0.0000
07:12 2 0.5 90 270 0.3 0.8 1024.1 0.0000 0.0000
07:22 1.9 0.4 90 232 0.6 1.1 1024.2 0.0000 0.0000
07:31 1.6 0.1 90 236 0.8 1.7 1024.2 0.0000 0.0000
07:41 1.5 0.2 91 207 0.6 1.1 1024.4 0.0000 0.0000
07:52 1.5 0.2 91 232 0.6 1.1 1024.6 0.0000 0.0000
08:02 1.4 0.1 91 315 0.3 0.8 1024.6 0.0000 0.0000
08:11 1.6 0.4 92 239 0.6 1.1 1024.7 0.0000 0.0000
08:22 1.6 0.4 92 237 0.6 0.8 1024.8 0.0000 0.0000
08:32 1.6 0.4 92 240 0.3 0.8 1024.9 0.0000 0.0000
08:42 1.7 0.5 92 270 0.3 0.8 1025 0.0000 0.0000
08:52 1.9 0.9 93 232 0.3 1.4 1025.1 0.0000 0.0000
09:02 2.3 1.3 93 303 0.6 0.8 1025.1 0.0000 0.0000
09:12 2.7 1.7 93 232 0.3 1.1 1025.2 0.0000 0.0000
09:22 3.1 2.1 93 270 0.3 0.8 1025.2 0.0000 0.0000
09:33 3.5 2.5 93 270 0.3 0.8 1025.1 0.0000 0.0000
09:42 3.9 2.9 93 315 0.6 1.1 1025.1 0.0000 0.0000
09:52 4.4 3.2 92 307 0.6 1.4 1025 0.0000 0.0000
10:03 4.9 3.6 91 292 0.6 1.1 1024.9 0.0000 0.0000
10:13 5 3 87 311 0.6 1.4 1024.9 0.0000 0.0000
10:22 5.1 2.6 84 294 0.6 1.4 1024.9 0.0000 0.0000
10:32 5.5 2.8 83 246 0.6 1.7 1024.9 0.0000 0.0000
10:43 5.8 3 82 237 0.6 1.4 1024.9 0.0000 0.0000
10:53 6.2 2.8 79 242 0.6 1.7 1024.9 0.0000 0.0000
11:03 6.6 2.7 76 323 0.6 1.9 1024.9 0.0000 0.0000
11:13 6.7 1.6 70 305 0.8 1.7 1025 0.0000 0.0000
11:23 7 1.7 69 90 0.6 1.9 1024.9 0.0000 0.0000
11:33 7.1 1.4 67 317 0.8 2.2 1024.9 0.0000 0.0000
11:43 7.2 1.7 68 310 0.6 1.4 1024.9 0.0000 0.0000
11:53 7.1 1.4 67 322 0.6 1.7 1024.9 0.0000 0.0000
12:03 7 1.3 67 320 0.6 1.7 1024.8 0.0000 0.0000
12:13 6.9 1 66 309 0.8 1.7 1024.8 0.0000 0.0000
12:23 7 1.5 68 205 0.8 2.2 1024.8 0.0000 0.0000
12:34 7.1 1 65 232 1.7 3.1 1024.8 0.0000 0.0000
12:43 7.4 1.7 67 45 0.6 1.9 1024.8 0.0000 0.0000
12:53 7.6 1.4 65 318 1.1 2.5 1024.8 0.0000 0.0000
13:04 7.7 1.8 66 90 0.3 1.1 1024.8 0.0000 0.0000
13:14 7.8 1 62 318 0.8 2.8 1024.8 0.0000 0.0000
13:23 8 1.8 65 315 0.6 1.4 1024.7 0.0000 0.0000
13:34 8.1 1.7 64 316 0.8 2.5 1024.6 0.0000 0.0000
13:44 8.2 1.8 64 312 1.4 4.2 1024.5 0.0000 0.0000
13:54 8.4 2.4 66 71 0.6 1.7 1024.5 0.0000 0.0000
14:03 8.4 1.8 63 343 0.8 1.7 1024.4 0.0000 0.0000
14:14 8.4 1.8 63 313 1.4 2.8 1024.4 0.0000 0.0000
14:24 8.5 2.3 65 305 0.8 2.5 1024.4 0.0000 0.0000
14:34 9 2.8 65 270 0.8 1.9 1024.2 0.0000 0.0000
14:44 9.6 3.4 65 247 0.6 1.4 1024.1 0.0000 0.0000
14:54 9.7 3.2 64 309 0.6 1.7 1024 0.0000 0.0000
15:04 9.5 2.1 60 318 1.1 3.1 1024 0.0000 0.0000
15:14 9.3 1.9 60 323 1.4 2.5 1023.9 0.0000 0.0000
15:24 9.6 2.5 61 316 0.8 2.2 1023.8 0.0000 0.0000
15:34 10 2.6 60 315 1.1 2.5 1023.8 0.0000 0.0000
15:44 10.3 3.3 62 207 1.1 3.1 1023.6 0.0000 0.0000
15:55 10.7 3.3 60 77 0.8 2.2 1023.5 0.0000 0.0000
16:04 10.8 3.4 60 270 0.6 2.2 1023.3 0.0000 0.0000
16:14 11.2 3.7 60 60 0.6 1.9 1023.1 0.0000 0.0000
16:24 11.4 3.2 57 307 0.6 1.9 1022.9 0.0000 0.0000
16:35 11.5 3 56 315 0.8 2.8 1022.7 0.0000 0.0000
16:44 11.5 3.3 57 255 0.8 2.8 1022.7 0.0000 0.0000
16:54 11.8 3.6 57 215 0.6 2.5 1022.5 0.0000 0.0000
17:05 12.1 4.1 58 45 0.6 1.7 1022.4 0.0000 0.0000
17:15 12.1 3.1 54 315 0.6 1.7 1022.3 0.0000 0.0000
17:24 12.3 3.8 56 135 0.6 3.6 1022.3 0.0000 0.0000
17:35 12 2.7 53 21 0.6 1.4 1022.2 0.0000 0.0000
17:45 11.7 3 55 228 0.8 1.9 1022.1 0.0000 0.0000
17:55 11.6 3.6 58 315 0.8 1.9 1022 0.0000 0.0000
18:04 11.5 4 60 299 0.6 1.4 1022 0.0000 0.0000
18:15 11.7 4.2 60 242 0.6 1.1 1022 0.0000 0.0000
18:25 11.7 4.2 60 116 0.6 1.7 1021.9 0.0000 0.0000
18:35 11.8 4.5 61 90 0.6 1.4 1021.8 0.0000 0.0000
18:45 11.8 4.3 60 291 0.6 2.8 1021.9 0.0000 0.0000
18:55 11.8 4.3 60 206 0.6 1.4 1021.9 0.0000 0.0000
19:05 11.7 4.2 60 0.3 1.4 1021.9 0.0000 0.0000
19:15 11.6 4.3 61 270 0.6 1.9 1022 0.0000 0.0000
19:26 11.4 4.2 61 125 0.6 1.7 1022.1 0.0000 0.0000
19:45 10.8 4 63 237 0.6 1.7 1022.2 0.0000 0.0000
19:55 10.6 3.9 63 215 0.3 1.1 1022.3 0.0000 0.0000
20:06 10.2 3.7 64 270 0.6 1.7 1022.2 0.0000 0.0000
20:15 9.9 3.9 66 270 0.3 1.4 1022.3 0.0000 0.0000
20:25 9.5 3.7 67 270 0.6 1.4 1022.3 0.0000 0.0000
20:36 9.2 3.6 68 270 0.6 1.1 1022.3 0.0000 0.0000
20:46 8.9 3.5 69 254 0.6 1.1 1022.4 0.0000 0.0000
20:55 8.6 3.4 70 270 0.6 1.7 1022.5 0.0000 0.0000
21:06 8.3 3.4 71 270 0.6 1.7 1022.4 0.0000 0.0000
21:16 8.1 3.2 71 270 0.6 1.7 1022.6 0.0000 0.0000
21:26 7.8 3.1 72 270 0.6 1.4 1022.7 0.0000 0.0000
21:35 7.7 3 72 270 0.6 1.4 1022.7 0.0000 0.0000
21:46 7.5 3 73 270 0.3 1.4 1022.9 0.0000 0.0000
21:56 7.3 3 74 270 0.3 1.1 1023 0.0000 0.0000
22:06 7.1 2.8 74 270 0.3 1.1 1023.1 0.0000 0.0000
22:16 7 2.7 74 225 0.3 0.6 1023.2 0.0000 0.0000
22:26 6.8 2.7 75 233 0.3 0.8 1023.3 0.0000 0.0000
22:36 6.7 2.6 75 237 0.6 1.1 1023.4 0.0000 0.0000
22:46 6.6 2.5 75 225 0.6 1.4 1023.5 0.0000 0.0000
22:57 6.5 2.4 75 308 0.6 1.7 1023.5 0.0000 0.0000
23:06 6.4 2.5 76 344 0.3 0.8 1023.5 0.0000 0.0000
23:16 6.3 2.4 76 324 0.3 0.8 1023.5 0.0000 0.0000
23:27 6 2.3 77 180 0.3 0.6 1023.6 0.0000 0.0000
23:37 5.8 2.3 78 225 0.3 0.8 1023.7 0.0000 0.0000
23:46 5.5 2 78 270 0.3 0.6 1023.7 0.0000 0.0000
23:56 5.4 2.2 80 304 0.6 1.4 1023.7 0.0000

DAY STATISTIC

2021-04-12
TEMPERATURE
AVERAGE
6.0
HIGH
12.3
17:24
LOW
1.0
03:41
PRESSURE
AVERAGE
1023.7
HIGH
1025.2
09:12
LOW
1021.8
18:35
DEWPOINT
AVERAGE
1.8
HIGH
4.5
18:35
LOW
-0.9
03:11
HUMIDITY
AVERAGE
76
HIGH
93
08:52
LOW
53
17:35
WIND SPEED
AVERAGE
0.6
HIGH
1.7
12:34
WIND GUST
AVERAGE
1.5
HIGH
4.2
13:44
WIND DIRECTION
PREVAILING
SW
36.6%
N
2.1
NE
2.1
E
3.5
SE
2.1
S
0.7
SW
36.6
W
23.9
NW
28.2
PRECIPITATION
RAIN HOUR
0.0
RAIN DAY
0.0
TEMPERATURE (°C)
LOW
1.0
HIGH
12.3
AVERAGE
6.0
PRESSURE (hpa)
LOW
1021.8
HIGH
1025.2
AVERAGE
1023.7
DEVICE